Time;durP1;ratioP1;P1;durP2;ratioP2;P2;SDS_P1;SDS_P2;PMS_P1;PMS_P2;Temp;Humidity;BMP_temperature;BMP_pressure;BME280_temperature;BME280_humidity;BME280_pressure;Samples;Min_cycle;Max_cycle;Signal;HPM_P1;HPM_P2
2023/05/09 00:00:41;;;;;;;0.00;0.00;;;;;;;12.39;100.00;100149.22;6196679;22;20012;-76
2023/05/09 00:03:07;;;;;;;0.00;0.00;;;;;;;12.48;100.00;100163.16;6239943;22;20011;-77
2023/05/09 00:05:32;;;;;;;0.00;0.00;;;;;;;12.53;100.00;100168.63;6246187;22;20621;-77
2023/05/09 00:07:58;;;;;;;0.00;0.00;;;;;;;12.51;100.00;100160.69;6190304;22;20501;-77
2023/05/09 00:10:23;;;;;;;0.00;0.00;;;;;;;12.55;100.00;100163.66;6244804;22;20406;-78
2023/05/09 00:12:52;;;;;;;0.00;0.00;;;;;;;12.43;100.00;100144.03;6219747;22;20015;-76
2023/05/09 00:15:17;;;;;;;0.00;0.00;;;;;;;12.40;100.00;100135.25;6240165;22;20057;-77
2023/05/09 00:17:45;;;;;;;0.00;0.00;;;;;;;12.43;100.00;100149.50;6243456;22;20020;-77
2023/05/09 00:20:11;;;;;;;0.00;0.00;;;;;;;12.47;100.00;100153.28;6241737;22;20367;-78
2023/05/09 00:22:41;;;;;;;0.00;0.00;;;;;;;12.37;100.00;100133.06;6220979;22;20031;-78
2023/05/09 00:25:08;;;;;;;0.00;0.00;;;;;;;12.51;100.00;100143.38;6217292;22;20437;-80
2023/05/09 00:27:34;;;;;;;0.00;0.00;;;;;;;12.52;100.00;100140.34;6273379;22;20004;-79
2023/05/09 00:30:00;;;;;;;0.00;0.00;;;;;;;12.45;100.00;100128.09;6242299;22;20106;-78
2023/05/09 00:32:26;;;;;;;0.00;0.00;;;;;;;12.57;100.00;100145.81;6213743;22;20342;-78
2023/05/09 00:34:51;;;;;;;0.00;0.00;;;;;;;12.45;100.00;100125.34;6243553;22;20015;-79
2023/05/09 00:37:18;;;;;;;0.00;0.00;;;;;;;12.50;100.00;100136.25;6214520;22;20381;-79
2023/05/09 00:39:46;;;;;;;0.00;0.00;;;;;;;12.42;100.00;100128.66;6195497;22;20039;-78
2023/05/09 00:42:12;;;;;;;0.00;0.00;;;;;;;12.38;100.00;100128.41;6204331;22;20010;-78
2023/05/09 00:44:45;;;;;;;0.00;0.00;;;;;;;12.38;100.00;100139.38;6219049;22;20056;-79
2023/05/09 00:47:10;;;;;;;0.00;0.00;;;;;;;12.37;100.00;100144.03;6215464;22;20015;-80
2023/05/09 00:49:36;;;;;;;0.00;0.00;;;;;;;12.34;100.00;100144.59;6217247;22;20011;-79
2023/05/09 00:52:03;;;;;;;0.00;0.00;;;;;;;12.28;100.00;100134.78;6245898;22;20086;-79
2023/05/09 00:54:29;;;;;;;0.00;0.00;;;;;;;12.29;100.00;100139.16;6240966;22;20007;-79
2023/05/09 00:56:54;;;;;;;0.00;0.00;;;;;;;12.25;100.00;100138.09;6196937;22;20045;-79
2023/05/09 00:59:20;;;;;;;0.00;0.00;;;;;;;12.30;100.00;100143.53;6214353;22;20008;-79
2023/05/09 01:01:46;;;;;;;0.00;0.00;;;;;;;12.36;100.00;100158.84;6194322;22;20030;-79
2023/05/09 01:04:14;;;;;;;0.00;0.00;;;;;;;12.37;100.00;100149.53;6216601;22;20333;-78
2023/05/09 01:07:09;;;;;;;0.00;0.00;;;;;;;12.37;100.00;100151.47;6243572;22;20014;-78
2023/05/09 01:09:53;;;;;;;0.00;0.00;;;;;;;12.36;100.00;100136.91;6239057;22;20007;-78
2023/05/09 01:12:56;;;;;;;0.00;0.00;;;;;;;12.28;100.00;100129.31;6243584;22;20031;-78
2023/05/09 01:15:44;;;;;;;0.00;0.00;;;;;;;12.26;100.00;100128.75;6197905;22;20087;-80
2023/05/09 01:18:18;;;;;;;0.00;0.00;;;;;;;12.11;100.00;100105.00;6246203;22;20078;-79
2023/05/09 01:20:50;;;;;;;0.00;0.00;;;;;;;12.14;100.00;100120.06;6242603;22;20018;-79
2023/05/09 01:23:42;;;;;;;0.00;0.00;;;;;;;12.22;100.00;100135.91;6244892;22;20334;-78
2023/05/09 01:26:08;;;;;;;0.00;0.00;;;;;;;12.15;100.00;100132.66;6243101;22;20083;-79
2023/05/09 01:28:35;;;;;;;0.00;0.00;;;;;;;12.18;100.00;100134.84;6241256;22;20371;-78
2023/05/09 01:31:03;;;;;;;0.00;0.00;;;;;;;12.15;100.00;100140.88;6269894;22;20057;-79
2023/05/09 01:33:32;;;;;;;0.00;0.00;;;;;;;12.12;100.00;100127.75;6244040;22;20019;-78
2023/05/09 01:36:05;;;;;;;0.00;0.00;;;;;;;12.11;100.00;100134.34;6241140;22;20078;-78
2023/05/09 01:38:41;;;;;;;0.00;0.00;;;;;;;12.11;100.00;100128.88;6242473;22;20026;-78
2023/05/09 01:41:10;;;;;;;0.00;0.00;;;;;;;12.09;100.00;100126.41;6270514;22;20002;-78
2023/05/09 01:43:37;;;;;;;0.00;0.00;;;;;;;12.17;100.00;100133.22;6242038;22;20003;-79
2023/05/09 01:46:04;;;;;;;0.00;0.00;;;;;;;12.04;100.00;100102.56;6240521;22;20006;-79
2023/05/09 01:48:30;;;;;;;0.00;0.00;;;;;;;12.04;100.00;100099.84;6242204;22;20007;-78
2023/05/09 01:51:19;;;;;;;0.00;0.00;;;;;;;12.00;100.00;100097.94;6241407;22;20410;-79
2023/05/09 01:53:47;;;;;;;0.00;0.00;;;;;;;11.87;100.00;100086.50;6268734;22;20014;-78
2023/05/09 01:56:17;;;;;;;0.00;0.00;;;;;;;11.88;100.00;100098.25;6239467;22;20002;-78
2023/05/09 01:58:47;;;;;;;0.00;0.00;;;;;;;11.91;100.00;100108.66;6244993;22;20008;-78
2023/05/09 02:01:13;;;;;;;0.00;0.00;;;;;;;11.89;100.00;100099.91;6239972;22;20445;-79
2023/05/09 02:03:42;;;;;;;0.00;0.00;;;;;;;11.96;100.00;100103.19;6243677;22;20003;-79
2023/05/09 02:06:08;;;;;;;0.00;0.00;;;;;;;11.92;100.00;100088.38;6239306;22;20018;-81
2023/05/09 02:08:40;;;;;;;0.00;0.00;;;;;;;11.94;100.00;100091.69;6243928;22;20081;-79
2023/05/09 02:11:06;;;;;;;0.00;0.00;;;;;;;12.08;100.00;100096.56;6243768;22;20088;-79
2023/05/09 02:13:39;;;;;;;0.00;0.00;;;;;;;12.19;100.00;100109.06;6237464;22;20000;-79
2023/05/09 02:16:06;;;;;;;0.00;0.00;;;;;;;12.22;100.00;100108.50;6242157;22;20008;-79
2023/05/09 02:18:34;;;;;;;0.00;0.00;;;;;;;12.26;100.00;100112.31;6265507;22;20003;-79
2023/05/09 02:21:01;;;;;;;0.00;0.00;;;;;;;12.13;100.00;100086.34;6220502;22;20091;-80
2023/05/09 02:23:29;;;;;;;0.00;0.00;;;;;;;12.18;100.00;100091.00;6240925;22;20003;-79
2023/05/09 02:25:55;;;;;;;0.00;0.00;;;;;;;12.17;100.00;100092.09;6240965;22;20708;-78
2023/05/09 02:28:22;;;;;;;0.00;0.00;;;;;;;12.23;100.00;100105.47;6246083;22;20003;-79
2023/05/09 02:30:49;;;;;;;0.03;0.03;;;;;;;12.13;100.00;100088.28;6236329;22;20042;-79
2023/05/09 02:33:17;;;;;;;0.00;0.00;;;;;;;12.16;100.00;100083.06;6245150;22;20072;-79
2023/05/09 02:35:46;;;;;;;0.00;0.00;;;;;;;12.25;100.00;100107.94;6214512;22;20011;-79
2023/05/09 02:38:13;;;;;;;0.00;0.00;;;;;;;12.30;100.00;100118.06;6272346;22;20004;-79
2023/05/09 02:40:41;;;;;;;0.00;0.00;;;;;;;12.20;100.00;100097.00;6240211;22;20007;-80
2023/05/09 02:43:06;;;;;;;0.00;0.00;;;;;;;12.26;100.00;100101.34;6216766;22;19999;-78
2023/05/09 02:45:32;;;;;;;0.00;0.00;;;;;;;12.17;100.00;100092.09;6242778;22;20004;-78
2023/05/09 02:47:57;;;;;;;0.00;0.00;;;;;;;12.13;100.00;100085.53;6241641;22;20369;-77
2023/05/09 02:50:23;;;;;;;0.00;0.00;;;;;;;12.10;100.00;100084.19;6245165;22;20004;-78
2023/05/09 02:52:48;;;;;;;0.00;0.00;;;;;;;12.09;100.00;100087.22;6238179;22;20032;-77
2023/05/09 02:55:16;;;;;;;0.00;0.00;;;;;;;12.13;100.00;100093.75;6244426;22;20084;-77
2023/05/09 02:57:44;;;;;;;0.00;0.00;;;;;;;11.99;100.00;100077.16;6240472;22;20003;-79
2023/05/09 03:00:27;;;;;;;0.00;0.00;;;;;;;11.97;100.00;100090.28;6240114;22;19996;-78
2023/05/09 03:02:54;;;;;;;0.00;0.00;;;;;;;11.95;100.00;100104.28;6240394;22;20007;-78
2023/05/09 03:05:20;;;;;;;0.00;0.00;;;;;;;11.79;100.00;100083.53;6239077;22;20015;-79
2023/05/09 03:07:46;;;;;;;0.00;0.00;;;;;;;11.81;100.00;100100.50;6238988;22;20008;-78
2023/05/09 03:10:11;;;;;;;0.00;0.00;;;;;;;11.70;100.00;100089.59;6243571;22;19999;-77
2023/05/09 03:12:43;;;;;;;0.00;0.00;;;;;;;11.53;100.00;100078.16;6217918;22;20004;-79
2023/05/09 03:15:09;;;;;;;0.00;0.00;;;;;;;11.49;100.00;100090.78;6216748;22;20018;-78
2023/05/09 03:17:36;;;;;;;0.00;0.00;;;;;;;11.23;100.00;100065.41;6219974;22;20000;-79
2023/05/09 03:20:04;;;;;;;0.00;0.00;;;;;;;11.15;100.00;100064.09;6241348;22;20006;-78
2023/05/09 03:22:30;;;;;;;0.00;0.00;;;;;;;11.07;100.00;100064.66;6246373;22;20004;-78
2023/05/09 03:24:57;;;;;;;0.00;0.00;;;;;;;11.10;100.00;100078.59;6221050;22;20004;-78
2023/05/09 03:27:25;;;;;;;0.00;0.00;;;;;;;11.05;100.00;100080.53;6242477;22;20523;-78
2023/05/09 03:29:57;;;;;;;0.00;0.00;;;;;;;10.90;100.00;100065.78;6220926;22;20453;-78
2023/05/09 03:32:23;;;;;;;0.00;0.00;;;;;;;10.85;100.00;100076.75;6216479;22;20061;-77
2023/05/09 03:34:53;;;;;;;0.00;0.00;;;;;;;10.77;100.00;100063.63;6221311;22;20003;-78
2023/05/09 03:37:19;;;;;;;0.00;0.00;;;;;;;10.59;100.00;100060.38;6220041;22;20438;-78
2023/05/09 03:39:44;;;;;;;0.10;0.10;;;;;;;10.60;100.00;100064.75;6221446;22;20010;-78
2023/05/09 03:42:20;;;;;;;0.00;0.00;;;;;;;10.53;100.00;100075.16;6271517;22;20532;-79
2023/05/09 03:44:45;;;;;;;0.00;0.00;;;;;;;10.53;100.00;100077.03;6241153;22;20003;-78
2023/05/09 03:47:11;;;;;;;0.00;0.00;;;;;;;10.55;100.00;100072.94;6219290;22;20007;-77
2023/05/09 03:49:37;;;;;;;0.00;0.00;;;;;;;10.61;100.00;100077.31;6212562;22;20591;-78
2023/05/09 03:52:02;;;;;;;0.00;0.00;;;;;;;10.83;100.00;100092.59;6271497;22;20011;-77
2023/05/09 03:54:28;;;;;;;0.10;0.10;;;;;;;10.75;100.00;100068.56;6213521;22;20369;-78
2023/05/09 03:56:53;;;;;;;0.00;0.00;;;;;;;10.88;100.00;100070.72;6193408;22;20311;-78
2023/05/09 03:59:21;;;;;;;0.00;0.00;;;;;;;10.99;100.00;100072.34;6242160;22;20011;-78
2023/05/09 04:01:47;;;;;;;0.00;0.00;;;;;;;11.21;100.00;100084.84;6237552;22;20014;-79
2023/05/09 04:04:14;;;;;;;0.00;0.00;;;;;;;11.30;100.00;100075.00;6243981;22;20383;-79
2023/05/09 04:06:42;;;;;;;0.00;0.00;;;;;;;11.37;100.00;100065.66;6189297;22;20007;-78
2023/05/09 04:09:08;;;;;;;0.00;0.00;;;;;;;11.44;100.00;100066.16;6217794;22;20007;-78
2023/05/09 04:11:36;;;;;;;0.00;0.00;;;;;;;11.40;100.00;100048.66;6188622;22;20050;-78
2023/05/09 04:14:05;;;;;;;0.00;0.00;;;;;;;11.44;100.00;100055.22;6218504;22;20010;-79
2023/05/09 04:16:31;;;;;;;0.00;0.00;;;;;;;11.41;100.00;100064.81;6244633;22;20043;-78
2023/05/09 04:18:57;;;;;;;0.10;0.10;;;;;;;11.35;100.00;100064.00;6240133;22;20000;-79
2023/05/09 04:21:24;;;;;;;0.00;0.00;;;;;;;11.44;100.00;100086.16;6245063;22;20002;-79
2023/05/09 04:23:59;;;;;;;0.00;0.00;;;;;;;11.42;100.00;100079.31;6214392;22;20011;-79
2023/05/09 04:26:24;;;;;;;0.00;0.00;;;;;;;11.34;100.00;100053.34;6244034;22;20034;-79
2023/05/09 04:28:54;;;;;;;0.03;0.03;;;;;;;11.38;100.00;100048.13;6214857;22;20031;-79
2023/05/09 04:31:23;;;;;;;0.00;0.00;;;;;;;11.39;100.00;100047.03;6243684;22;20027;-79
2023/05/09 04:33:48;;;;;;;0.00;0.00;;;;;;;11.40;100.00;100052.22;6264147;22;20078;-78
2023/05/09 04:36:16;;;;;;;0.00;0.00;;;;;;;11.32;100.00;100026.25;6242773;22;19995;-78
2023/05/09 04:38:41;;;;;;;0.00;0.00;;;;;;;11.40;100.00;100026.75;6212552;22;20008;-77
2023/05/09 04:41:09;;;;;;;0.00;0.00;;;;;;;11.31;100.00;100016.38;6241130;22;20002;-79
2023/05/09 04:43:34;;;;;;;0.00;0.00;;;;;;;11.49;100.00;100046.97;6269886;22;20057;-78
2023/05/09 04:46:00;;;;;;;0.10;0.10;;;;;;;11.47;100.00;100043.72;6238423;22;20000;-79
2023/05/09 04:48:26;;;;;;;0.00;0.00;;;;;;;11.32;100.00;100009.81;6218291;22;20010;-79
2023/05/09 04:50:54;;;;;;;0.00;0.00;;;;;;;11.48;100.00;100031.66;6238215;22;20090;-78
2023/05/09 04:53:20;;;;;;;0.00;0.00;;;;;;;11.38;100.00;100007.88;6217217;22;20032;-78
2023/05/09 04:55:46;;;;;;;0.10;0.10;;;;;;;11.38;100.00;100002.41;6243714;22;20445;-78
2023/05/09 04:58:14;;;;;;;0.00;0.00;;;;;;;11.41;100.00;99995.56;6214454;22;20003;-77
2023/05/09 05:00:42;;;;;;;0.00;0.00;;;;;;;11.45;100.00;100005.66;6217457;22;20041;-77
2023/05/09 05:03:08;;;;;;;0.00;0.00;;;;;;;11.50;100.00;100008.34;6238048;22;20341;-77
2023/05/09 05:05:36;;;;;;;0.00;0.00;;;;;;;11.55;100.00;100010.28;6218004;22;20011;-79
2023/05/09 05:08:02;;;;;;;0.00;0.00;;;;;;;11.56;100.00;100017.34;6237319;22;20008;-77
2023/05/09 05:10:29;;;;;;;0.00;0.00;;;;;;;11.62;100.00;100019.00;6219571;22;20065;-77
2023/05/09 05:12:57;;;;;;;0.00;0.00;;;;;;;11.75;100.00;100031.22;6212492;22;20041;-77
2023/05/09 05:15:22;;;;;;;0.00;0.00;;;;;;;11.74;100.00;100009.59;6243159;22;20012;-77
2023/05/09 05:17:48;;;;;;;0.10;0.10;;;;;;;11.91;100.00;100020.16;6217604;22;20012;-77
2023/05/09 05:20:13;;;;;;;0.00;0.00;;;;;;;11.91;100.00;100017.44;6263078;22;20083;-77
2023/05/09 05:22:44;;;;;;;0.00;0.00;;;;;;;11.90;100.00;100002.91;6244975;22;20361;-77
2023/05/09 05:25:10;;;;;;;0.00;0.00;;;;;;;12.02;100.00;100008.88;6217817;22;20004;-77
2023/05/09 05:27:55;;;;;;;0.10;0.10;;;;;;;12.02;100.00;100003.41;6269643;22;20006;-78
2023/05/09 05:30:21;;;;;;;0.00;0.00;;;;;;;12.11;100.00;100005.53;6237011;22;20070;-79
2023/05/09 05:32:46;;;;;;;0.00;0.00;;;;;;;12.15;100.00;100014.78;6243898;22;20007;-78
2023/05/09 05:35:12;;;;;;;0.00;0.00;;;;;;;12.12;100.00;100007.16;6237397;22;20286;-78
2023/05/09 05:37:38;;;;;;;0.00;0.00;;;;;;;12.21;100.00;100036.41;6243893;22;20016;-78
2023/05/09 05:40:05;;;;;;;0.00;0.00;;;;;;;12.15;100.00;100020.28;6265743;22;19996;-78
2023/05/09 05:42:30;;;;;;;0.00;0.00;;;;;;;12.15;100.00;100023.03;6266674;22;19995;-79
2023/05/09 05:44:56;;;;;;;0.00;0.00;;;;;;;12.04;100.00;100014.88;6243401;22;20138;-78
2023/05/09 05:47:21;;;;;;;0.00;0.00;;;;;;;12.15;100.00;100025.75;6236841;22;20007;-77
2023/05/09 05:49:47;;;;;;;0.00;0.00;;;;;;;12.21;100.00;100035.59;6231736;22;20304;-77
2023/05/09 05:52:14;;;;;;;0.00;0.00;;;;;;;12.15;100.00;100009.31;6216608;22;20014;-78
2023/05/09 05:54:42;;;;;;;0.00;0.00;;;;;;;12.11;100.00;99991.84;6213286;22;20311;-77
2023/05/09 05:57:08;;;;;;;0.00;0.00;;;;;;;12.34;100.00;100026.72;6241237;22;20095;-78
2023/05/09 05:59:33;;;;;;;0.00;0.00;;;;;;;12.35;100.00;100028.34;6213202;22;20031;-78
2023/05/09 06:01:59;;;;;;;0.00;0.00;;;;;;;12.37;100.00;100023.41;6241730;22;20027;-78
2023/05/09 06:04:24;;;;;;;0.00;0.00;;;;;;;12.41;100.00;100018.13;6212515;22;20022;-80
2023/05/09 06:06:52;;;;;;;0.00;0.00;;;;;;;12.60;100.00;100036.63;6215504;22;20023;-79
2023/05/09 06:09:20;;;;;;;0.00;0.00;;;;;;;12.66;100.00;100029.97;6217306;22;20012;-78
2023/05/09 06:11:51;;;;;;;0.00;0.00;;;;;;;12.68;100.00;100014.06;6238393;22;20010;-79
2023/05/09 06:14:18;;;;;;;0.00;0.00;;;;;;;12.95;100.00;100037.38;6244278;22;20023;-78
2023/05/09 06:16:44;;;;;;;0.00;0.00;;;;;;;13.00;100.00;100032.63;6213566;22;20065;-78
2023/05/09 06:19:13;;;;;;;0.00;0.00;;;;;;;12.81;100.00;99988.66;6271851;22;20322;-78
2023/05/09 06:21:38;;;;;;;0.00;0.00;;;;;;;12.99;100.00;100009.03;6238017;22;20398;-77
2023/05/09 06:24:11;;;;;;;0.00;0.00;;;;;;;13.31;100.00;100029.53;6242410;22;20079;-80
2023/05/09 06:26:36;;;;;;;0.00;0.00;;;;;;;13.35;100.00;100014.13;6237399;22;20370;-79
2023/05/09 06:29:02;;;;;;;0.00;0.00;;;;;;;13.42;100.00;100014.59;6217644;22;20018;-79
2023/05/09 06:31:34;;;;;;;0.00;0.00;;;;;;;13.39;100.00;99998.69;6217506;22;20015;-79
2023/05/09 06:34:00;;;;;;;0.00;0.00;;;;;;;13.56;100.00;100008.34;6217059;22;20007;-78
2023/05/09 06:36:25;;;;;;;0.00;0.00;;;;;;;13.62;100.00;100012.66;6214790;22;20083;-79
2023/05/09 06:38:53;;;;;;;0.00;0.00;;;;;;;13.52;100.00;99986.16;6211053;22;20014;-77
2023/05/09 06:41:20;;;;;;;0.00;0.00;;;;;;;13.63;100.00;100002.50;6239491;22;20054;-78
2023/05/09 06:43:45;;;;;;;0.00;0.00;;;;;;;13.62;100.00;100001.66;6240756;22;20038;-77
2023/05/09 06:46:11;;;;;;;0.00;0.00;;;;;;;13.70;100.00;99995.53;6241845;22;20541;-77
2023/05/09 06:48:36;;;;;;;0.00;0.00;;;;;;;13.86;100.00;100006.28;6245229;22;20172;-75
2023/05/09 06:51:05;;;;;;;0.00;0.00;;;;;;;14.01;100.00;100008.78;6238668;22;20033;-78
2023/05/09 06:53:33;;;;;;;0.00;0.00;;;;;;;14.09;100.00;99994.38;6245271;22;20027;-77
2023/05/09 06:55:59;;;;;;;0.00;0.00;;;;;;;14.30;100.00;100010.53;6213573;22;20011;-77
2023/05/09 06:58:26;;;;;;;0.00;0.00;;;;;;;14.39;100.00;99996.91;6245296;22;20014;-79
2023/05/09 07:00:52;;;;;;;0.00;0.00;;;;;;;14.58;100.00;100005.91;6241539;22;20197;-77
2023/05/09 07:03:20;;;;;;;0.00;0.00;;;;;;;14.86;100.00;100007.91;6239938;22;20031;-77
2023/05/09 07:05:45;;;;;;;0.00;0.00;;;;;;;15.00;99.05;99989.47;6217783;22;20437;-76
2023/05/09 07:08:10;;;;;;;0.00;0.00;;;;;;;15.52;98.79;100008.47;6189047;22;20058;-78
2023/05/09 07:10:37;;;;;;;0.00;0.00;;;;;;;15.68;96.83;99997.91;6238826;22;20007;-80
2023/05/09 07:13:03;;;;;;;0.00;0.00;;;;;;;15.79;95.08;99987.50;6206933;22;20061;-77
2023/05/09 07:15:28;;;;;;;0.00;0.00;;;;;;;16.05;94.49;99993.22;6269742;22;20598;-78
2023/05/09 07:17:56;;;;;;;0.00;0.00;;;;;;;16.36;93.22;99989.69;6240046;22;20006;-77
2023/05/09 07:20:21;;;;;;;0.00;0.00;;;;;;;16.65;91.82;99974.59;6243790;22;19999;-77
2023/05/09 07:22:47;;;;;;;0.00;0.00;;;;;;;16.92;89.68;99990.97;6244113;22;20007;-78
2023/05/09 07:25:12;;;;;;;0.00;0.00;;;;;;;16.97;87.66;99980.88;6236547;22;20011;-76
2023/05/09 07:27:42;;;;;;;0.00;0.00;;;;;;;16.86;86.14;99986.69;6216208;22;20349;-78
2023/05/09 07:30:08;;;;;;;0.00;0.00;;;;;;;16.39;84.80;99994.56;6239610;22;20830;-77
2023/05/09 07:32:41;;;;;;;0.00;0.00;;;;;;;16.09;86.11;100002.50;6216724;22;20003;-77
2023/05/09 07:35:07;;;;;;;0.00;0.00;;;;;;;16.04;87.12;100011.69;6212076;22;20011;-77
2023/05/09 07:37:37;;;;;;;0.00;0.00;;;;;;;15.93;87.81;100009.50;6242623;22;20011;-77
2023/05/09 07:40:04;;;;;;;0.00;0.00;;;;;;;15.74;88.62;99996.69;6239938;22;20031;-78
2023/05/09 07:42:31;;;;;;;0.00;0.00;;;;;;;15.65;88.69;100015.06;6275227;22;19992;-79
2023/05/09 07:45:09;;;;;;;0.00;0.00;;;;;;;15.26;88.96;99991.66;6251471;22;20329;-77
2023/05/09 07:47:49;;;;;;;0.00;0.00;;;;;;;15.33;89.60;100019.59;6240193;22;20750;-78
2023/05/09 07:53:59;;;;;;;;;;;;;;;;;;;;;
2023/05/09 07:57:05;;;;;;;0.00;0.00;;;;;;;16.15;86.29;99968.16;6261556;22;20099;-77
2023/05/09 08:03:20;;;;;;;;;;;;;;;;;;;;;
2023/05/09 08:06:00;;;;;;;0.00;0.00;;;;;;;15.83;84.46;99988.53;6271654;22;20082;-78
2023/05/09 08:08:33;;;;;;;0.00;0.00;;;;;;;15.84;85.57;99985.44;6237744;22;20008;-78
2023/05/09 08:10:58;;;;;;;0.00;0.00;;;;;;;15.92;85.82;99994.09;6244040;22;20003;-77
2023/05/09 08:13:24;;;;;;;0.00;0.00;;;;;;;16.22;85.74;99989.75;6209650;22;20020;-78
2023/05/09 08:15:50;;;;;;;0.00;0.00;;;;;;;16.47;83.99;99995.75;6213807;22;20417;-77
2023/05/09 08:18:16;;;;;;;0.00;0.00;;;;;;;16.64;83.86;99989.50;6211113;22;20012;-77
2023/05/09 08:20:41;;;;;;;0.00;0.00;;;;;;;17.12;81.76;100005.31;6216270;22;20000;-78
2023/05/09 08:23:09;;;;;;;0.00;0.00;;;;;;;17.50;80.53;99999.22;6234564;22;20051;-78
2023/05/09 08:25:42;;;;;;;0.00;0.00;;;;;;;17.78;78.69;99988.69;6270141;22;20000;-77
2023/05/09 08:28:07;;;;;;;0.00;0.00;;;;;;;17.98;77.20;100005.00;6239041;22;20448;-77
2023/05/09 08:30:33;;;;;;;0.00;0.00;;;;;;;17.89;77.13;100005.78;6221899;22;20020;-77
2023/05/09 08:33:03;;;;;;;0.00;0.00;;;;;;;17.50;76.52;99985.41;6239095;23;20087;-78
2023/05/09 08:35:28;;;;;;;0.00;0.00;;;;;;;17.37;75.94;99978.88;6229950;23;20014;-76
2023/05/09 08:38:01;;;;;;;0.00;0.00;;;;;;;16.97;76.90;99958.78;6241805;23;20036;-77
2023/05/09 08:40:27;;;;;;;0.00;0.00;;;;;;;16.76;78.50;99962.09;6228829;23;20099;-76
2023/05/09 08:42:58;;;;;;;0.00;0.00;;;;;;;16.87;79.62;99955.19;6210766;23;20084;-77
2023/05/09 08:45:27;;;;;;;0.00;0.00;;;;;;;17.57;78.50;99994.03;6207491;23;20019;-78
2023/05/09 08:48:02;;;;;;;0.00;0.00;;;;;;;18.14;75.22;99995.03;6212013;23;20008;-77
2023/05/09 08:50:28;;;;;;;0.00;0.00;;;;;;;18.33;72.18;99974.50;6211779;23;20411;-77
2023/05/09 08:52:54;;;;;;;0.00;0.00;;;;;;;18.36;72.26;99963.59;6257227;22;20019;-77
2023/05/09 08:55:20;;;;;;;0.00;0.00;;;;;;;18.47;71.55;99953.78;6264428;22;20018;-78
2023/05/09 08:57:46;;;;;;;0.00;0.00;;;;;;;18.53;71.24;99957.19;6205319;23;20062;-78
2023/05/09 09:00:21;;;;;;;0.00;0.00;;;;;;;18.64;71.69;99971.47;6235336;23;20012;-76
2023/05/09 09:02:52;;;;;;;0.00;0.00;;;;;;;18.52;71.05;99966.63;6234141;23;20039;-76
2023/05/09 09:05:21;;;;;;;0.00;0.00;;;;;;;18.38;71.96;99972.34;6210872;23;20008;-76
2023/05/09 09:07:46;;;;;;;0.00;0.00;;;;;;;18.25;73.01;99965.91;6233519;23;20007;-76
2023/05/09 09:10:15;;;;;;;0.00;0.00;;;;;;;18.01;72.63;99963.66;6210900;23;20007;-78
2023/05/09 09:12:45;;;;;;;0.00;0.00;;;;;;;18.26;74.15;99950.09;6238373;23;20027;-77
2023/05/09 09:15:17;;;;;;;0.00;0.00;;;;;;;19.08;71.59;99955.47;6231656;23;20117;-78
2023/05/09 09:17:49;;;;;;;0.00;0.00;;;;;;;19.82;69.31;99950.41;6212447;23;20109;-77
2023/05/09 09:20:15;;;;;;;0.00;0.00;;;;;;;20.83;65.86;99951.13;6206021;23;20001;-77
2023/05/09 09:22:46;;;;;;;0.00;0.00;;;;;;;21.85;62.70;99968.97;6237384;23;20361;-76
2023/05/09 09:25:12;;;;;;;0.00;0.00;;;;;;;22.56;59.61;99966.53;6204441;23;20003;-77
2023/05/09 09:27:37;;;;;;;0.00;0.00;;;;;;;22.27;57.91;99951.84;6232013;23;20004;-76
2023/05/09 09:30:11;;;;;;;0.00;0.00;;;;;;;21.82;58.33;99975.25;6243216;22;20043;-77
2023/05/09 09:32:44;;;;;;;0.00;0.00;;;;;;;20.82;59.91;99955.09;6228600;22;20050;-77
2023/05/09 09:35:10;;;;;;;0.00;0.00;;;;;;;20.50;61.20;99965.06;6235380;22;20007;-77
2023/05/09 09:37:59;;;;;;;0.00;0.00;;;;;;;20.32;62.76;99970.81;6241057;22;20333;-77
2023/05/09 09:40:25;;;;;;;0.00;0.00;;;;;;;20.05;62.06;99958.38;6228285;22;20107;-76
2023/05/09 09:42:54;;;;;;;0.00;0.00;;;;;;;19.98;63.07;99950.59;6241814;22;20078;-76
2023/05/09 09:45:19;;;;;;;0.00;0.00;;;;;;;20.03;62.98;99961.50;6240645;22;20034;-77
2023/05/09 09:47:46;;;;;;;0.00;0.00;;;;;;;20.14;63.18;99955.50;6193160;22;20004;-77
2023/05/09 09:50:14;;;;;;;0.00;0.00;;;;;;;20.32;62.71;99940.28;6264509;22;20422;-78
2023/05/09 09:52:55;;;;;;;0.00;0.00;;;;;;;20.35;60.99;99956.25;6243950;22;20295;-77
2023/05/09 09:55:23;;;;;;;0.00;0.00;;;;;;;20.02;61.18;99934.88;6237363;22;20076;-77
2023/05/09 09:57:50;;;;;;;0.00;0.00;;;;;;;20.03;62.21;99930.97;6243570;22;20004;-77
2023/05/09 10:00:24;;;;;;;0.00;0.00;;;;;;;20.29;62.24;99942.94;6238505;22;20034;-76
2023/05/09 10:02:52;;;;;;;0.00;0.00;;;;;;;20.14;61.62;99936.09;6243430;22;20406;-77
2023/05/09 10:05:23;;;;;;;0.00;0.00;;;;;;;20.05;62.26;99931.44;6265655;22;20006;-76
2023/05/09 10:07:52;;;;;;;0.00;0.00;;;;;;;20.19;63.08;99941.41;6242447;22;20007;-77
2023/05/09 10:10:18;;;;;;;0.00;0.00;;;;;;;20.26;62.95;99941.66;6239786;22;20432;-77
2023/05/09 10:12:44;;;;;;;0.00;0.00;;;;;;;20.07;62.61;99944.16;6239765;22;20035;-77
2023/05/09 10:15:13;;;;;;;0.00;0.00;;;;;;;19.79;63.97;99917.00;6242306;22;20069;-78
2023/05/09 10:17:39;;;;;;;0.00;0.00;;;;;;;20.09;64.05;99936.28;6238260;22;20007;-77
2023/05/09 10:20:05;;;;;;;0.00;0.00;;;;;;;20.04;62.70;99929.78;6239791;22;20039;-76
2023/05/09 10:22:33;;;;;;;0.00;0.00;;;;;;;20.29;63.42;99920.72;6262884;22;20107;-77
2023/05/09 10:25:03;;;;;;;0.00;0.00;;;;;;;20.60;63.04;99928.50;6229392;22;20000;-78
2023/05/09 10:27:33;;;;;;;0.00;0.00;;;;;;;21.01;60.31;99932.28;6238581;22;20003;-76
2023/05/09 10:30:34;;;;;;;0.00;0.00;;;;;;;21.14;60.06;99927.50;6240636;22;20019;-77
2023/05/09 10:33:10;;;;;;;0.00;0.00;;;;;;;21.48;59.53;99918.97;6212424;22;20027;-75
2023/05/09 10:35:40;;;;;;;0.00;0.00;;;;;;;21.72;57.64;99916.13;6241791;22;20094;-77
2023/05/09 10:38:08;;;;;;;0.00;0.00;;;;;;;21.98;57.02;99914.84;6264562;22;20004;-77
2023/05/09 10:40:34;;;;;;;0.00;0.00;;;;;;;22.16;56.90;99906.19;6241807;22;20407;-76
2023/05/09 10:43:07;;;;;;;0.00;0.00;;;;;;;21.88;56.28;99898.69;6211746;22;20023;-77
2023/05/09 10:45:33;;;;;;;0.00;0.00;;;;;;;21.41;57.30;99911.22;6242377;22;20023;-77
2023/05/09 10:48:02;;;;;;;0.00;0.00;;;;;;;20.80;58.78;99903.78;6211848;22;20319;-77
2023/05/09 10:50:29;;;;;;;0.00;0.00;;;;;;;20.61;59.51;99912.69;6271497;22;20008;-75
2023/05/09 10:53:07;;;;;;;0.00;0.00;;;;;;;20.88;60.19;99900.06;6240094;22;20012;-75
2023/05/09 10:55:55;;;;;;;0.00;0.00;;;;;;;21.85;58.37;99905.75;6242202;22;20004;-77
2023/05/09 10:58:27;;;;;;;0.00;0.00;;;;;;;22.93;55.30;99904.94;6259950;22;20007;-77
2023/05/09 11:00:55;;;;;;;0.00;0.00;;;;;;;23.67;52.49;99888.25;6219315;22;20146;-77
2023/05/09 11:03:43;;;;;;;0.00;0.00;;;;;;;23.60;49.56;99881.72;6236359;22;20000;-77
2023/05/09 11:06:12;;;;;;;0.00;0.00;;;;;;;23.06;50.91;99892.50;6263230;22;20007;-76
2023/05/09 11:08:41;;;;;;;0.00;0.00;;;;;;;22.76;50.18;99881.84;6214420;22;20289;-76
2023/05/09 11:11:06;;;;;;;0.00;0.00;;;;;;;22.38;51.10;99891.66;6240018;22;20555;-77
2023/05/09 11:13:39;;;;;;;0.00;0.00;;;;;;;22.08;52.32;99889.28;6188800;22;20006;-75
2023/05/09 11:16:08;;;;;;;0.00;0.00;;;;;;;22.02;52.26;99885.16;6241911;22;20000;-76
2023/05/09 11:18:33;;;;;;;0.00;0.00;;;;;;;22.07;52.85;99882.09;6237162;22;20304;-76
2023/05/09 11:21:07;;;;;;;0.00;0.00;;;;;;;22.49;51.86;99881.59;6241526;22;20012;-77
2023/05/09 11:23:32;;;;;;;0.00;0.00;;;;;;;22.47;51.14;99864.44;6269669;22;19999;-76
2023/05/09 11:26:46;;;;;;;;;;;;;;;;;;;;;
2023/05/09 11:30:31;;;;;;;;;;;;;;;;;;;;;
2023/05/09 11:33:19;;;;;;;;;;;;;;;;;;;;;
2023/05/09 11:39:29;;;;;;;0.00;0.00;;;;;;;22.53;50.20;99844.66;6243734;22;20688;-78
2023/05/09 11:42:08;;;;;;;;;;;;;;;;;;;;;
2023/05/09 11:45:11;;;;;;;;;;;;;;;;;;;;;
2023/05/09 11:47:46;;;;;;;0.00;0.00;;;;;;;23.45;50.28;99842.38;6264414;22;20082;-76
2023/05/09 11:50:18;;;;;;;0.00;0.00;;;;;;;23.98;48.21;99849.38;6240421;22;20091;-76
2023/05/09 11:53:23;;;;;;;;;;;;;;;;;;;;;
2023/05/09 11:56:09;;;;;;;0.00;0.00;;;;;;;24.46;46.83;99827.44;6243559;22;20003;-76